sensor_id;sensor_type;location;lat;lon;timestamp;pressure;altitude;pressure_sealevel;temperature;humidity
20620;BME280;10469;42.720;23.252;2023-02-15T00:01:33;96111.59;;;1.31;100.00
20620;BME280;10469;42.720;23.252;2023-02-15T00:03:59;96104.41;;;1.23;100.00
20620;BME280;10469;42.720;23.252;2023-02-15T00:06:25;96103.56;;;1.22;100.00
20620;BME280;10469;42.720;23.252;2023-02-15T00:08:51;96108.56;;;1.25;100.00
20620;BME280;10469;42.720;23.252;2023-02-15T00:11:18;96116.25;;;1.19;100.00
20620;BME280;10469;42.720;23.252;2023-02-15T00:14:27;96115.03;;;1.13;100.00
20620;BME280;10469;42.720;23.252;2023-02-15T00:16:52;96106.72;;;1.08;100.00
20620;BME280;10469;42.720;23.252;2023-02-15T00:19:20;96124.22;;;1.09;100.00
20620;BME280;10469;42.720;23.252;2023-02-15T00:21:47;96119.16;;;1.16;100.00
20620;BME280;10469;42.720;23.252;2023-02-15T00:24:15;96112.84;;;1.09;100.00
20620;BME280;10469;42.720;23.252;2023-02-15T00:26:42;96126.44;;;1.14;100.00
20620;BME280;10469;42.720;23.252;2023-02-15T00:29:09;96119.63;;;1.11;100.00
20620;BME280;10469;42.720;23.252;2023-02-15T00:31:35;96113.94;;;1.06;100.00
20620;BME280;10469;42.720;23.252;2023-02-15T00:36:30;96118.41;;;1.06;100.00
20620;BME280;10469;42.720;23.252;2023-02-15T00:38:56;96111.50;;;0.95;100.00
20620;BME280;10469;42.720;23.252;2023-02-15T00:41:22;96124.56;;;0.96;100.00
20620;BME280;10469;42.720;23.252;2023-02-15T00:43:47;96122.47;;;1.00;100.00
20620;BME280;10469;42.720;23.252;2023-02-15T00:46:12;96124.03;;;0.93;100.00
20620;BME280;10469;42.720;23.252;2023-02-15T00:48:38;96125.13;;;0.90;100.00
20620;BME280;10469;42.720;23.252;2023-02-15T00:51:04;96117.09;;;0.92;100.00
20620;BME280;10469;42.720;23.252;2023-02-15T00:53:29;96126.06;;;0.99;100.00
20620;BME280;10469;42.720;23.252;2023-02-15T00:55:55;96128.63;;;0.91;100.00
20620;BME280;10469;42.720;23.252;2023-02-15T00:58:21;96124.31;;;0.90;100.00
20620;BME280;10469;42.720;23.252;2023-02-15T01:00:47;96129.59;;;0.90;100.00
20620;BME280;10469;42.720;23.252;2023-02-15T01:03:14;96124.75;;;0.85;100.00
20620;BME280;10469;42.720;23.252;2023-02-15T01:05:40;96112.69;;;0.83;100.00
20620;BME280;10469;42.720;23.252;2023-02-15T01:08:06;96122.66;;;0.89;100.00
20620;BME280;10469;42.720;23.252;2023-02-15T01:10:33;96122.09;;;0.85;100.00
20620;BME280;10469;42.720;23.252;2023-02-15T01:12:58;96121.00;;;0.88;100.00
20620;BME280;10469;42.720;23.252;2023-02-15T01:15:24;96122.25;;;0.84;100.00
20620;BME280;10469;42.720;23.252;2023-02-15T01:17:49;96105.34;;;0.77;100.00
20620;BME280;10469;42.720;23.252;2023-02-15T01:20:18;96111.00;;;0.82;100.00
20620;BME280;10469;42.720;23.252;2023-02-15T01:22:44;96101.59;;;0.79;100.00
20620;BME280;10469;42.720;23.252;2023-02-15T01:25:09;96104.06;;;0.81;100.00
20620;BME280;10469;42.720;23.252;2023-02-15T01:27:35;96114.19;;;0.85;100.00
20620;BME280;10469;42.720;23.252;2023-02-15T01:30:00;96101.44;;;0.81;100.00
20620;BME280;10469;42.720;23.252;2023-02-15T01:32:26;96111.41;;;0.87;100.00
20620;BME280;10469;42.720;23.252;2023-02-15T01:34:52;96102.91;;;0.93;100.00
20620;BME280;10469;42.720;23.252;2023-02-15T01:37:17;96092.63;;;0.90;100.00
20620;BME280;10469;42.720;23.252;2023-02-15T01:39:43;96098.72;;;0.90;100.00
20620;BME280;10469;42.720;23.252;2023-02-15T01:42:11;96105.34;;;0.77;100.00
20620;BME280;10469;42.720;23.252;2023-02-15T01:44:57;96091.13;;;0.87;100.00
20620;BME280;10469;42.720;23.252;2023-02-15T01:47:41;96101.44;;;0.81;100.00
20620;BME280;10469;42.720;23.252;2023-02-15T01:53:05;96098.34;;;0.85;100.00
20620;BME280;10469;42.720;23.252;2023-02-15T01:55:37;96081.88;;;0.73;100.00
20620;BME280;10469;42.720;23.252;2023-02-15T01:58:03;96079.75;;;0.77;100.00
20620;BME280;10469;42.720;23.252;2023-02-15T02:00:29;96077.44;;;0.74;100.00
20620;BME280;10469;42.720;23.252;2023-02-15T02:02:56;96076.00;;;0.80;100.00
20620;BME280;10469;42.720;23.252;2023-02-15T02:05:22;96080.19;;;0.72;100.00
20620;BME280;10469;42.720;23.252;2023-02-15T02:07:50;96082.84;;;0.72;100.00
20620;BME280;10469;42.720;23.252;2023-02-15T02:10:19;96069.84;;;0.61;100.00
20620;BME280;10469;42.720;23.252;2023-02-15T02:12:47;96086.03;;;0.76;100.00
20620;BME280;10469;42.720;23.252;2023-02-15T02:15:15;96095.59;;;0.77;100.00
20620;BME280;10469;42.720;23.252;2023-02-15T02:36:48;96099.38;;;1.02;100.00
20620;BME280;10469;42.720;23.252;2023-02-15T02:39:41;96082.75;;;0.92;100.00
20620;BME280;10469;42.720;23.252;2023-02-15T02:45:08;96092.72;;;0.98;100.00
20620;BME280;10469;42.720;23.252;2023-02-15T02:47:48;96099.09;;;1.05;100.00
20620;BME280;10469;42.720;23.252;2023-02-15T02:50:18;96098.63;;;1.10;100.00
20620;BME280;10469;42.720;23.252;2023-02-15T02:52:51;96089.16;;;1.17;100.00
20620;BME280;10469;42.720;23.252;2023-02-15T02:58:06;96109.63;;;1.33;100.00
20620;BME280;10469;42.720;23.252;2023-02-15T03:00:55;96112.50;;;1.39;100.00
20620;BME280;10469;42.720;23.252;2023-02-15T03:03:28;96120.06;;;1.52;100.00
20620;BME280;10469;42.720;23.252;2023-02-15T03:05:59;96120.59;;;1.56;100.00
20620;BME280;10469;42.720;23.252;2023-02-15T03:08:31;96118.47;;;1.59;100.00
20620;BME280;10469;42.720;23.252;2023-02-15T03:11:00;96117.50;;;1.60;100.00
20620;BME280;10469;42.720;23.252;2023-02-15T03:13:27;96120.81;;;1.62;100.00
20620;BME280;10469;42.720;23.252;2023-02-15T03:15:53;96100.38;;;1.64;100.00
20620;BME280;10469;42.720;23.252;2023-02-15T03:18:44;96117.56;;;1.68;100.00
20620;BME280;10469;42.720;23.252;2023-02-15T03:21:20;96124.16;;;1.64;100.00
20620;BME280;10469;42.720;23.252;2023-02-15T03:23:50;96116.81;;;1.76;100.00
20620;BME280;10469;42.720;23.252;2023-02-15T03:26:18;96119.31;;;1.78;100.00
20620;BME280;10469;42.720;23.252;2023-02-15T03:28:47;96103.50;;;1.68;100.00
20620;BME280;10469;42.720;23.252;2023-02-15T03:31:16;96126.09;;;1.62;100.00
20620;BME280;10469;42.720;23.252;2023-02-15T03:33:54;96110.16;;;1.72;100.00
20620;BME280;10469;42.720;23.252;2023-02-15T03:42:12;96119.00;;;1.81;100.00
20620;BME280;10469;42.720;23.252;2023-02-15T03:44:47;96118.25;;;1.88;100.00
20620;BME280;10469;42.720;23.252;2023-02-15T03:47:20;96106.38;;;1.74;100.00
20620;BME280;10469;42.720;23.252;2023-02-15T03:49:53;96107.06;;;1.76;100.00
20620;BME280;10469;42.720;23.252;2023-02-15T03:52:21;96112.81;;;1.72;100.00
20620;BME280;10469;42.720;23.252;2023-02-15T03:54:50;96110.41;;;1.79;100.00
20620;BME280;10469;42.720;23.252;2023-02-15T03:57:21;96114.53;;;1.63;100.00
20620;BME280;10469;42.720;23.252;2023-02-15T04:00:18;96105.84;;;1.71;100.00
20620;BME280;10469;42.720;23.252;2023-02-15T04:05:45;96109.88;;;1.75;100.00
20620;BME280;10469;42.720;23.252;2023-02-15T04:08:12;96105.19;;;1.69;100.00
20620;BME280;10469;42.720;23.252;2023-02-15T04:10:38;96115.00;;;1.76;100.00
20620;BME280;10469;42.720;23.252;2023-02-15T04:13:30;96130.34;;;1.91;100.00
20620;BME280;10469;42.720;23.252;2023-02-15T04:15:56;96120.97;;;1.96;100.00
20620;BME280;10469;42.720;23.252;2023-02-15T04:18:39;96135.41;;;1.84;100.00
20620;BME280;10469;42.720;23.252;2023-02-15T04:21:25;96136.22;;;1.85;100.00
20620;BME280;10469;42.720;23.252;2023-02-15T04:24:10;96130.34;;;1.91;100.00
20620;BME280;10469;42.720;23.252;2023-02-15T04:26:54;96140.00;;;2.00;100.00
20620;BME280;10469;42.720;23.252;2023-02-15T04:29:24;96152.63;;;1.88;100.00
20620;BME280;10469;42.720;23.252;2023-02-15T04:31:51;96160.41;;;1.90;100.00
20620;BME280;10469;42.720;23.252;2023-02-15T04:34:16;96145.59;;;1.97;100.00
20620;BME280;10469;42.720;23.252;2023-02-15T04:36:42;96148.41;;;1.95;100.00
20620;BME280;10469;42.720;23.252;2023-02-15T04:39:08;96162.47;;;1.96;100.00
20620;BME280;10469;42.720;23.252;2023-02-15T04:41:35;96153.06;;;2.01;100.00
20620;BME280;10469;42.720;23.252;2023-02-15T04:44:00;96162.22;;;2.07;100.00
20620;BME280;10469;42.720;23.252;2023-02-15T04:46:27;96152.69;;;2.14;100.00
20620;BME280;10469;42.720;23.252;2023-02-15T04:48:52;96152.91;;;2.21;100.00
20620;BME280;10469;42.720;23.252;2023-02-15T04:51:18;96160.34;;;2.17;100.00
20620;BME280;10469;42.720;23.252;2023-02-15T04:53:44;96137.50;;;1.98;100.00
20620;BME280;10469;42.720;23.252;2023-02-15T04:56:09;96137.06;;;2.03;100.00
20620;BME280;10469;42.720;23.252;2023-02-15T04:58:35;96161.63;;;2.13;100.00
20620;BME280;10469;42.720;23.252;2023-02-15T05:01:02;96148.94;;;1.99;100.00
20620;BME280;10469;42.720;23.252;2023-02-15T05:03:28;96162.22;;;2.07;100.00
20620;BME280;10469;42.720;23.252;2023-02-15T05:05:54;96162.59;;;2.12;100.00
20620;BME280;10469;42.720;23.252;2023-02-15T05:08:20;96162.81;;;2.01;100.00
20620;BME280;10469;42.720;23.252;2023-02-15T05:10:48;96159.56;;;2.07;100.00
20620;BME280;10469;42.720;23.252;2023-02-15T05:13:14;96169.47;;;2.23;100.00
20620;BME280;10469;42.720;23.252;2023-02-15T05:15:39;96171.97;;;2.07;100.00
20620;BME280;10469;42.720;23.252;2023-02-15T05:18:05;96176.34;;;2.16;100.00
20620;BME280;10469;42.720;23.252;2023-02-15T05:20:32;96176.50;;;2.14;100.00
20620;BME280;10469;42.720;23.252;2023-02-15T05:22:58;96184.16;;;2.17;100.00
20620;BME280;10469;42.720;23.252;2023-02-15T05:25:23;96189.88;;;2.31;100.00
20620;BME280;10469;42.720;23.252;2023-02-15T05:28:10;96192.53;;;2.31;100.00
20620;BME280;10469;42.720;23.252;2023-02-15T05:30:48;96201.22;;;2.23;100.00
20620;BME280;10469;42.720;23.252;2023-02-15T05:33:14;96181.88;;;2.22;100.00
20620;BME280;10469;42.720;23.252;2023-02-15T05:35:39;96195.38;;;2.37;100.00
20620;BME280;10469;42.720;23.252;2023-02-15T05:38:05;96201.03;;;2.60;100.00
20620;BME280;10469;42.720;23.252;2023-02-15T05:40:30;96188.78;;;2.59;100.00
20620;BME280;10469;42.720;23.252;2023-02-15T05:42:56;96199.56;;;2.92;100.00
20620;BME280;10469;42.720;23.252;2023-02-15T05:45:22;96196.91;;;2.92;100.00
20620;BME280;10469;42.720;23.252;2023-02-15T05:47:47;96178.06;;;2.43;100.00
20620;BME280;10469;42.720;23.252;2023-02-15T05:50:13;96192.66;;;2.47;100.00
20620;BME280;10469;42.720;23.252;2023-02-15T05:52:38;96202.91;;;2.94;100.00
20620;BME280;10469;42.720;23.252;2023-02-15T05:55:04;96201.69;;;2.62;100.00
20620;BME280;10469;42.720;23.252;2023-02-15T05:57:30;96194.44;;;2.90;100.00
20620;BME280;10469;42.720;23.252;2023-02-15T05:59:56;96201.75;;;2.96;100.00
20620;BME280;10469;42.720;23.252;2023-02-15T06:02:22;96213.97;;;3.15;100.00
20620;BME280;10469;42.720;23.252;2023-02-15T06:04:48;96206.44;;;3.03;100.00
20620;BME280;10469;42.720;23.252;2023-02-15T06:07:13;96213.91;;;3.07;100.00
20620;BME280;10469;42.720;23.252;2023-02-15T06:09:39;96209.75;;;3.05;100.00
20620;BME280;10469;42.720;23.252;2023-02-15T06:12:05;96203.81;;;2.85;100.00
20620;BME280;10469;42.720;23.252;2023-02-15T06:14:33;96207.03;;;2.96;100.00
20620;BME280;10469;42.720;23.252;2023-02-15T06:16:58;96200.69;;;2.89;100.00
20620;BME280;10469;42.720;23.252;2023-02-15T06:19:23;96204.56;;;2.95;100.00
20620;BME280;10469;42.720;23.252;2023-02-15T06:21:49;96215.34;;;2.75;100.00
20620;BME280;10469;42.720;23.252;2023-02-15T06:24:14;96218.69;;;2.78;100.00
20620;BME280;10469;42.720;23.252;2023-02-15T06:26:40;96217.13;;;2.93;100.00
20620;BME280;10469;42.720;23.252;2023-02-15T06:29:06;96219.81;;;3.01;100.00
20620;BME280;10469;42.720;23.252;2023-02-15T06:31:32;96215.47;;;2.92;100.00
20620;BME280;10469;42.720;23.252;2023-02-15T06:33:57;96219.06;;;2.83;100.00
20620;BME280;10469;42.720;23.252;2023-02-15T06:36:28;96206.34;;;2.86;100.00
20620;BME280;10469;42.720;23.252;2023-02-15T06:38:54;96217.44;;;3.16;100.00
20620;BME280;10469;42.720;23.252;2023-02-15T06:41:20;96213.91;;;3.07;100.00
20620;BME280;10469;42.720;23.252;2023-02-15T06:43:46;96214.81;;;2.90;100.00
20620;BME280;10469;42.720;23.252;2023-02-15T06:46:11;96209.09;;;3.11;100.00
20620;BME280;10469;42.720;23.252;2023-02-15T06:48:37;96209.00;;;3.20;100.00
20620;BME280;10469;42.720;23.252;2023-02-15T06:51:03;96213.63;;;3.18;100.00
20620;BME280;10469;42.720;23.252;2023-02-15T06:53:28;96210.72;;;3.30;100.00
20620;BME280;10469;42.720;23.252;2023-02-15T06:56:00;96214.88;;;3.06;100.00
20620;BME280;10469;42.720;23.252;2023-02-15T06:58:27;96210.66;;;3.21;100.00
20620;BME280;10469;42.720;23.252;2023-02-15T07:00:53;96213.38;;;3.30;100.00
20620;BME280;10469;42.720;23.252;2023-02-15T07:03:18;96210.38;;;3.24;100.00
20620;BME280;10469;42.720;23.252;2023-02-15T07:05:44;96228.09;;;3.32;100.00
20620;BME280;10469;42.720;23.252;2023-02-15T07:08:10;96216.19;;;3.36;100.00
20620;BME280;10469;42.720;23.252;2023-02-15T07:10:36;96208.69;;;3.23;100.00
20620;BME280;10469;42.720;23.252;2023-02-15T07:13:01;96214.88;;;3.40;100.00
20620;BME280;10469;42.720;23.252;2023-02-15T07:15:27;96218.44;;;3.57;100.00
20620;BME280;10469;42.720;23.252;2023-02-15T07:17:52;96214.13;;;3.56;100.00
20620;BME280;10469;42.720;23.252;2023-02-15T07:20:20;96214.97;;;3.57;100.00
20620;BME280;10469;42.720;23.252;2023-02-15T07:22:47;96220.34;;;3.81;100.00
20620;BME280;10469;42.720;23.252;2023-02-15T07:25:13;96227.50;;;3.81;100.00
20620;BME280;10469;42.720;23.252;2023-02-15T07:27:39;96210.44;;;3.99;100.00
20620;BME280;10469;42.720;23.252;2023-02-15T07:30:08;96219.22;;;3.92;100.00
20620;BME280;10469;42.720;23.252;2023-02-15T07:32:34;96209.94;;;3.96;100.00
20620;BME280;10469;42.720;23.252;2023-02-15T07:35:00;96219.88;;;3.86;100.00
20620;BME280;10469;42.720;23.252;2023-02-15T07:37:26;96217.00;;;3.71;100.00
20620;BME280;10469;42.720;23.252;2023-02-15T07:39:52;96218.56;;;3.90;100.00
20620;BME280;10469;42.720;23.252;2023-02-15T07:42:18;96206.34;;;3.55;100.00
20620;BME280;10469;42.720;23.252;2023-02-15T07:44:45;96214.28;;;3.12;100.00
20620;BME280;10469;42.720;23.252;2023-02-15T07:47:10;96221.78;;;3.59;100.00
20620;BME280;10469;42.720;23.252;2023-02-15T07:49:37;96212.13;;;3.58;100.00
20620;BME280;10469;42.720;23.252;2023-02-15T07:52:03;96211.00;;;3.61;100.00
20620;BME280;10469;42.720;23.252;2023-02-15T07:54:29;96218.47;;;3.65;100.00
20620;BME280;10469;42.720;23.252;2023-02-15T07:56:55;96202.94;;;3.78;100.00
20620;BME280;10469;42.720;23.252;2023-02-15T07:59:20;96195.50;;;3.90;100.00
20620;BME280;10469;42.720;23.252;2023-02-15T08:01:45;96182.34;;;3.72;100.00
20620;BME280;10469;42.720;23.252;2023-02-15T08:04:11;96206.44;;;3.45;100.00
20620;BME280;10469;42.720;23.252;2023-02-15T08:06:37;96190.53;;;3.45;100.00
20620;BME280;10469;42.720;23.252;2023-02-15T08:09:08;96204.56;;;3.63;100.00
20620;BME280;10469;42.720;23.252;2023-02-15T08:11:35;96204.88;;;3.60;100.00
20620;BME280;10469;42.720;23.252;2023-02-15T08:16:35;96192.84;;;3.40;100.00
20620;BME280;10469;42.720;23.252;2023-02-15T08:19:06;96205.69;;;3.61;100.00
20620;BME280;10469;42.720;23.252;2023-02-15T08:21:34;96213.06;;;3.41;100.00
20620;BME280;10469;42.720;23.252;2023-02-15T08:23:59;96204.25;;;3.32;100.00
20620;BME280;10469;42.720;23.252;2023-02-15T08:26:26;96206.91;;;3.32;100.00
20620;BME280;10469;42.720;23.252;2023-02-15T08:28:55;96216.22;;;3.44;100.00
20620;BME280;10469;42.720;23.252;2023-02-15T08:31:25;96198.63;;;3.86;100.00
20620;BME280;10469;42.720;23.252;2023-02-15T08:33:52;96206.28;;;3.97;100.00
20620;BME280;10469;42.720;23.252;2023-02-15T08:36:23;96200.03;;;4.31;100.00
20620;BME280;10469;42.720;23.252;2023-02-15T08:38:49;96210.72;;;3.88;100.00
20620;BME280;10469;42.720;23.252;2023-02-15T08:41:22;96208.09;;;3.88;100.00
20620;BME280;10469;42.720;23.252;2023-02-15T08:43:49;96208.44;;;3.93;100.00
20620;BME280;10469;42.720;23.252;2023-02-15T08:46:16;96216.94;;;4.13;100.00
20620;BME280;10469;42.720;23.252;2023-02-15T08:48:43;96219.91;;;4.02;100.00
20620;BME280;10469;42.720;23.252;2023-02-15T08:53:39;96201.63;;;5.05;100.00
20620;BME280;10469;42.720;23.252;2023-02-15T08:56:05;96207.16;;;5.43;100.00
20620;BME280;10469;42.720;23.252;2023-02-15T08:58:31;96201.19;;;5.41;100.00
20620;BME280;10469;42.720;23.252;2023-02-15T09:00:57;96207.63;;;4.83;100.00
20620;BME280;10469;42.720;23.252;2023-02-15T09:03:23;96202.13;;;5.56;100.00
20620;BME280;10469;42.720;23.252;2023-02-15T09:05:48;96208.75;;;5.60;100.00
20620;BME280;10469;42.720;23.252;2023-02-15T09:08:14;96210.91;;;5.65;100.00
20620;BME280;10469;42.720;23.252;2023-02-15T09:10:40;96220.94;;;5.86;100.00
20620;BME280;10469;42.720;23.252;2023-02-15T09:13:05;96197.94;;;5.22;100.00
20620;BME280;10469;42.720;23.252;2023-02-15T09:15:30;96209.69;;;5.36;100.00
20620;BME280;10469;42.720;23.252;2023-02-15T09:17:56;96192.00;;;5.51;100.00
20620;BME280;10469;42.720;23.252;2023-02-15T09:20:24;96203.31;;;5.53;100.00
20620;BME280;10469;42.720;23.252;2023-02-15T09:22:51;96200.00;;;5.83;100.00
20620;BME280;10469;42.720;23.252;2023-02-15T09:25:17;96199.31;;;5.89;100.00
20620;BME280;10469;42.720;23.252;2023-02-15T09:27:43;96211.91;;;6.03;100.00
20620;BME280;10469;42.720;23.252;2023-02-15T09:30:09;96216.47;;;5.39;100.00
20620;BME280;10469;42.720;23.252;2023-02-15T09:32:34;96193.56;;;5.38;100.00
20620;BME280;10469;42.720;23.252;2023-02-15T09:35:00;96215.66;;;5.38;100.00
20620;BME280;10469;42.720;23.252;2023-02-15T09:37:25;96205.53;;;5.73;100.00
20620;BME280;10469;42.720;23.252;2023-02-15T09:39:51;96214.41;;;6.27;100.00
20620;BME280;10469;42.720;23.252;2023-02-15T09:45:38;96201.56;;;6.54;100.00
20620;BME280;10469;42.720;23.252;2023-02-15T10:01:42;96191.16;;;6.82;100.00
20620;BME280;10469;42.720;23.252;2023-02-15T10:18:00;96191.66;;;7.15;100.00
20620;BME280;10469;42.720;23.252;2023-02-15T10:20:57;96173.25;;;8.37;100.00
20620;BME280;10469;42.720;23.252;2023-02-15T10:26:20;96167.03;;;9.84;100.00
20620;BME280;10469;42.720;23.252;2023-02-15T10:29:02;96183.94;;;8.01;100.00
20620;BME280;10469;42.720;23.252;2023-02-15T10:31:49;96183.13;;;7.86;100.00
20620;BME280;10469;42.720;23.252;2023-02-15T10:34:39;96183.28;;;8.14;100.00
20620;BME280;10469;42.720;23.252;2023-02-15T10:45:39;96164.53;;;8.50;100.00
20620;BME280;10469;42.720;23.252;2023-02-15T10:51:05;96101.56;;;9.38;97.83
20620;BME280;10469;42.720;23.252;2023-02-15T11:02:10;96139.31;;;13.22;73.27
20620;BME280;10469;42.720;23.252;2023-02-15T11:07:21;96140.75;;;12.74;79.92
20620;BME280;10469;42.720;23.252;2023-02-15T11:10:00;96150.19;;;12.52;75.30
20620;BME280;10469;42.720;23.252;2023-02-15T11:12:28;96150.78;;;10.73;83.39
20620;BME280;10469;42.720;23.252;2023-02-15T11:17:49;96156.09;;;8.32;87.26
20620;BME280;10469;42.720;23.252;2023-02-15T11:20:50;96149.88;;;8.67;98.92
20620;BME280;10469;42.720;23.252;2023-02-15T11:23:18;96149.69;;;8.69;97.43
20620;BME280;10469;42.720;23.252;2023-02-15T11:25:57;96164.59;;;7.03;100.00
20620;BME280;10469;42.720;23.252;2023-02-15T11:28:47;96137.09;;;8.91;100.00
20620;BME280;10469;42.720;23.252;2023-02-15T11:31:20;96139.41;;;9.76;98.16
20620;BME280;10469;42.720;23.252;2023-02-15T11:33:55;96135.47;;;11.20;87.70
20620;BME280;10469;42.720;23.252;2023-02-15T11:36:32;96139.84;;;11.72;74.08
20620;BME280;10469;42.720;23.252;2023-02-15T11:39:03;96135.25;;;12.31;74.01
20620;BME280;10469;42.720;23.252;2023-02-15T11:41:37;96135.53;;;12.16;74.91
20620;BME280;10469;42.720;23.252;2023-02-15T11:44:10;96124.19;;;11.63;71.36
20620;BME280;10469;42.720;23.252;2023-02-15T11:46:38;96126.84;;;12.77;68.66
20620;BME280;10469;42.720;23.252;2023-02-15T11:51:44;96124.19;;;11.63;74.21
20620;BME280;10469;42.720;23.252;2023-02-15T11:54:09;96105.19;;;12.91;68.91
20620;BME280;10469;42.720;23.252;2023-02-15T11:56:35;96112.31;;;13.28;66.11
20620;BME280;10469;42.720;23.252;2023-02-15T11:59:05;96119.81;;;10.97;73.43
20620;BME280;10469;42.720;23.252;2023-02-15T12:01:46;96118.81;;;9.29;81.24
20620;BME280;10469;42.720;23.252;2023-02-15T12:04:24;96120.09;;;9.05;92.18
20620;BME280;10469;42.720;23.252;2023-02-15T12:07:12;96090.75;;;8.56;98.42
20620;BME280;10469;42.720;23.252;2023-02-15T12:10:00;96098.88;;;9.99;93.25
20620;BME280;10469;42.720;23.252;2023-02-15T12:12:31;96090.16;;;9.77;88.40
20620;BME280;10469;42.720;23.252;2023-02-15T12:15:04;96087.41;;;10.72;82.84
20620;BME280;10469;42.720;23.252;2023-02-15T12:17:33;96091.19;;;9.76;89.64
20620;BME280;10469;42.720;23.252;2023-02-15T12:20:31;96090.75;;;9.18;93.37
20620;BME280;10469;42.720;23.252;2023-02-15T12:23:03;96094.41;;;10.26;89.85
20620;BME280;10469;42.720;23.252;2023-02-15T12:25:36;96089.75;;;9.67;93.48
20620;BME280;10469;42.720;23.252;2023-02-15T12:28:03;96083.03;;;11.11;79.04
20620;BME280;10469;42.720;23.252;2023-02-15T12:30:35;96089.56;;;11.35;78.42
20620;BME280;10469;42.720;23.252;2023-02-15T12:33:13;96081.84;;;10.73;79.39
20620;BME280;10469;42.720;23.252;2023-02-15T12:35:39;96073.91;;;9.86;85.69
20620;BME280;10469;42.720;23.252;2023-02-15T12:38:23;96084.84;;;8.17;94.41
20620;BME280;10469;42.720;23.252;2023-02-15T12:41:04;96075.13;;;8.87;95.53
20620;BME280;10469;42.720;23.252;2023-02-15T12:43:37;96058.09;;;9.36;90.75
20620;BME280;10469;42.720;23.252;2023-02-15T12:46:20;96059.31;;;10.21;86.83
20620;BME280;10469;42.720;23.252;2023-02-15T12:48:46;96045.78;;;9.42;89.18
20620;BME280;10469;42.720;23.252;2023-02-15T12:51:14;96041.31;;;7.95;99.23
20620;BME280;10469;42.720;23.252;2023-02-15T12:53:40;96054.91;;;8.78;97.95
20620;BME280;10469;42.720;23.252;2023-02-15T12:56:08;96053.16;;;9.40;90.73
20620;BME280;10469;42.720;23.252;2023-02-15T12:58:36;96051.94;;;9.42;91.62
20620;BME280;10469;42.720;23.252;2023-02-15T13:01:15;96055.47;;;7.74;100.00
20620;BME280;10469;42.720;23.252;2023-02-15T13:04:03;96047.72;;;7.79;100.00
20620;BME280;10469;42.720;23.252;2023-02-15T13:06:32;96059.53;;;7.92;100.00
20620;BME280;10469;42.720;23.252;2023-02-15T13:09:40;96057.63;;;7.64;100.00
20620;BME280;10469;42.720;23.252;2023-02-15T13:14:45;96057.75;;;6.90;100.00
20620;BME280;10469;42.720;23.252;2023-02-15T13:17:15;96044.22;;;7.58;100.00
20620;BME280;10469;42.720;23.252;2023-02-15T13:19:51;96040.63;;;7.14;100.00
20620;BME280;10469;42.720;23.252;2023-02-15T13:22:21;96047.38;;;7.68;100.00
20620;BME280;10469;42.720;23.252;2023-02-15T13:24:53;96038.03;;;7.57;100.00
20620;BME280;10469;42.720;23.252;2023-02-15T13:27:23;96038.56;;;7.31;100.00
20620;BME280;10469;42.720;23.252;2023-02-15T13:29:51;96048.75;;;6.91;100.00
20620;BME280;10469;42.720;23.252;2023-02-15T13:32:35;96044.22;;;7.21;100.00
20620;BME280;10469;42.720;23.252;2023-02-15T13:35:03;96053.34;;;6.68;100.00
20620;BME280;10469;42.720;23.252;2023-02-15T13:38:10;96050.28;;;6.56;100.00
20620;BME280;10469;42.720;23.252;2023-02-15T13:40:51;96055.34;;;5.98;100.00
20620;BME280;10469;42.720;23.252;2023-02-15T13:51:16;96065.59;;;6.24;100.00
20620;BME280;10469;42.720;23.252;2023-02-15T13:53:53;96075.91;;;5.82;100.00
20620;BME280;10469;42.720;23.252;2023-02-15T14:10:44;96083.66;;;5.37;100.00
20620;BME280;10469;42.720;23.252;2023-02-15T14:16:39;96091.03;;;5.58;100.00
20620;BME280;10469;42.720;23.252;2023-02-15T14:19:30;96091.38;;;5.55;100.00
20620;BME280;10469;42.720;23.252;2023-02-15T14:22:38;96100.13;;;5.64;100.00
20620;BME280;10469;42.720;23.252;2023-02-15T14:25:20;96090.28;;;5.72;100.00
20620;BME280;10469;42.720;23.252;2023-02-15T14:28:07;96101.19;;;5.54;100.00
20620;BME280;10469;42.720;23.252;2023-02-15T14:30:41;96103.03;;;5.54;100.00
20620;BME280;10469;42.720;23.252;2023-02-15T14:33:31;96102.81;;;5.64;100.00
20620;BME280;10469;42.720;23.252;2023-02-15T14:35:58;96077.00;;;5.10;100.00
20620;BME280;10469;42.720;23.252;2023-02-15T14:41:27;96097.22;;;5.19;100.00
20620;BME280;10469;42.720;23.252;2023-02-15T14:44:15;96096.78;;;5.39;100.00
20620;BME280;10469;42.720;23.252;2023-02-15T14:47:00;96103.25;;;5.05;100.00
20620;BME280;10469;42.720;23.252;2023-02-15T14:49:36;96093.34;;;4.83;100.00
20620;BME280;10469;42.720;23.252;2023-02-15T14:52:07;96091.34;;;4.93;100.00
20620;BME280;10469;42.720;23.252;2023-02-15T14:59:44;96082.72;;;4.83;100.00
20620;BME280;10469;42.720;23.252;2023-02-15T15:02:14;96080.81;;;5.08;100.00
20620;BME280;10469;42.720;23.252;2023-02-15T15:04:52;96074.06;;;4.97;100.00
20620;BME280;10469;42.720;23.252;2023-02-15T15:07:20;96083.66;;;5.06;100.00
20620;BME280;10469;42.720;23.252;2023-02-15T15:09:59;96072.03;;;4.99;100.00
20620;BME280;10469;42.720;23.252;2023-02-15T15:14:52;96081.22;;;4.88;100.00
20620;BME280;10469;42.720;23.252;2023-02-15T15:20:37;96071.47;;;4.72;100.00
20620;BME280;10469;42.720;23.252;2023-02-15T15:25:44;96090.81;;;4.50;100.00
20620;BME280;10469;42.720;23.252;2023-02-15T15:33:59;96101.94;;;4.29;100.00
20620;BME280;10469;42.720;23.252;2023-02-15T15:40:00;96105.09;;;4.24;100.00
20620;BME280;10469;42.720;23.252;2023-02-15T15:43:10;96101.63;;;4.16;100.00
20620;BME280;10469;42.720;23.252;2023-02-15T15:45:47;96102.25;;;4.01;100.00
20620;BME280;10469;42.720;23.252;2023-02-15T15:48:28;96109.91;;;3.80;100.00